createdAt,value
2022-11-30T00:01:09.706Z,10.90
2022-11-30T00:03:37.276Z,10.90
2022-11-30T00:06:09.515Z,10.90
2022-11-30T00:08:36.464Z,10.90
2022-11-30T00:11:11.450Z,10.90
2022-11-30T00:13:38.216Z,10.90
2022-11-30T00:16:05.268Z,10.80
2022-11-30T00:18:32.136Z,10.80
2022-11-30T00:21:03.318Z,10.80
2022-11-30T00:23:41.227Z,10.80
2022-11-30T00:26:10.633Z,10.80
2022-11-30T00:28:38.695Z,10.80
2022-11-30T00:31:11.859Z,10.80
2022-11-30T00:33:39.283Z,10.80
2022-11-30T00:36:08.472Z,10.80
2022-11-30T00:38:35.840Z,10.80
2022-11-30T00:41:02.887Z,10.80
2022-11-30T00:43:29.576Z,10.80
2022-11-30T00:45:57.787Z,10.80
2022-11-30T00:48:24.803Z,10.80
2022-11-30T00:50:51.863Z,10.80
2022-11-30T00:53:19.532Z,10.80
2022-11-30T00:55:48.251Z,10.80
2022-11-30T00:58:15.160Z,10.80
2022-11-30T01:00:42.265Z,10.80
2022-11-30T01:03:09.279Z,10.80
2022-11-30T01:05:36.506Z,10.80
2022-11-30T01:08:04.593Z,10.80
2022-11-30T01:10:31.389Z,10.80
2022-11-30T01:12:58.032Z,10.80
2022-11-30T01:15:24.686Z,10.80
2022-11-30T01:17:51.349Z,10.80
2022-11-30T01:20:18.378Z,10.80
2022-11-30T01:22:45.002Z,10.80
2022-11-30T01:25:11.704Z,10.80
2022-11-30T01:27:38.639Z,10.80
2022-11-30T01:30:05.974Z,10.80
2022-11-30T01:32:32.637Z,10.80
2022-11-30T01:34:59.309Z,10.80
2022-11-30T01:37:25.934Z,10.80
2022-11-30T01:39:52.598Z,10.80
2022-11-30T01:42:20.620Z,10.80
2022-11-30T01:44:50.736Z,10.80
2022-11-30T01:47:20.022Z,10.90
2022-11-30T01:49:51.318Z,10.80
2022-11-30T01:52:23.096Z,10.80
2022-11-30T01:55:16.285Z,10.80
2022-11-30T01:58:06.855Z,10.80
2022-11-30T02:00:33.738Z,10.90
2022-11-30T02:03:36.104Z,10.90
2022-11-30T02:06:02.988Z,10.90
2022-11-30T02:08:31.411Z,10.90
2022-11-30T02:11:03.416Z,10.80
2022-11-30T02:13:46.882Z,10.80
2022-11-30T02:16:26.165Z,10.80
2022-11-30T02:19:35.186Z,10.80
2022-11-30T02:22:38.043Z,10.80
2022-11-30T02:25:40.764Z,10.90
2022-11-30T02:28:38.589Z,10.80
2022-11-30T02:31:10.166Z,10.80
2022-11-30T02:33:39.088Z,10.80
2022-11-30T02:36:07.145Z,10.80
2022-11-30T02:38:34.413Z,10.80
2022-11-30T02:41:02.288Z,10.80
2022-11-30T02:43:31.961Z,10.80
2022-11-30T02:46:21.294Z,10.80
2022-11-30T02:49:02.227Z,10.80
2022-11-30T02:51:32.500Z,10.80
2022-11-30T02:53:59.746Z,10.80
2022-11-30T02:56:27.031Z,10.80
2022-11-30T02:58:53.724Z,10.80
2022-11-30T03:01:21.017Z,10.80
2022-11-30T03:03:47.741Z,10.80
2022-11-30T03:06:14.422Z,10.80
2022-11-30T03:08:41.019Z,10.80
2022-11-30T03:11:07.721Z,10.80
2022-11-30T03:13:34.708Z,10.80
2022-11-30T03:16:12.413Z,10.80
2022-11-30T03:18:39.944Z,10.80
2022-11-30T03:21:11.262Z,10.80
2022-11-30T03:23:38.957Z,10.80
2022-11-30T03:26:07.992Z,10.80
2022-11-30T03:28:36.297Z,10.80
2022-11-30T03:31:03.037Z,10.80
2022-11-30T03:33:29.797Z,10.80
2022-11-30T03:36:04.501Z,10.80
2022-11-30T03:38:32.186Z,10.80
2022-11-30T03:41:08.266Z,10.80
2022-11-30T03:43:35.137Z,10.70
2022-11-30T03:46:02.099Z,10.70
2022-11-30T03:48:28.926Z,10.70
2022-11-30T03:50:55.590Z,10.70
2022-11-30T03:53:24.322Z,10.70
2022-11-30T03:55:56.541Z,10.70
2022-11-30T03:58:24.434Z,10.70
2022-11-30T04:00:59.146Z,10.70
2022-11-30T04:03:25.762Z,10.70
2022-11-30T04:05:52.419Z,10.70
2022-11-30T04:08:19.063Z,10.70
2022-11-30T04:10:51.947Z,10.70
2022-11-30T04:13:19.749Z,10.70
2022-11-30T04:15:47.731Z,10.70
2022-11-30T04:18:15.503Z,10.70
2022-11-30T04:20:42.462Z,10.70
2022-11-30T04:23:10.311Z,10.70
2022-11-30T04:25:41.354Z,10.70
2022-11-30T04:28:08.988Z,10.60
2022-11-30T04:30:36.645Z,10.70
2022-11-30T04:33:04.222Z,10.70
2022-11-30T04:35:30.982Z,10.70
2022-11-30T04:37:57.840Z,10.70
2022-11-30T04:40:24.536Z,10.70
2022-11-30T04:42:51.130Z,10.70
2022-11-30T04:45:17.781Z,10.70
2022-11-30T04:47:44.375Z,10.70
2022-11-30T04:50:11.037Z,10.70
2022-11-30T04:52:37.669Z,10.70
2022-11-30T04:55:04.660Z,10.70
2022-11-30T04:57:31.805Z,10.70
2022-11-30T04:59:58.459Z,10.70
2022-11-30T05:02:25.068Z,10.60
2022-11-30T05:04:51.896Z,10.60
2022-11-30T05:07:18.693Z,10.60
2022-11-30T05:09:45.388Z,10.60
2022-11-30T05:12:12.023Z,10.60
2022-11-30T05:14:38.648Z,10.60
2022-11-30T05:17:05.291Z,10.60
2022-11-30T05:19:31.949Z,10.60
2022-11-30T05:21:58.588Z,10.60
2022-11-30T05:24:25.269Z,10.60
2022-11-30T05:26:51.883Z,10.60
2022-11-30T05:29:18.546Z,10.60
2022-11-30T05:31:45.264Z,10.60
2022-11-30T05:34:11.917Z,10.60
2022-11-30T05:36:38.628Z,10.60
2022-11-30T05:39:05.455Z,10.60
2022-11-30T05:41:32.115Z,10.60
2022-11-30T05:43:58.791Z,10.60
2022-11-30T05:46:25.475Z,10.60
2022-11-30T05:48:52.103Z,10.60
2022-11-30T05:51:20.430Z,10.60
2022-11-30T05:53:47.413Z,10.60
2022-11-30T05:56:16.965Z,10.60
2022-11-30T05:58:44.282Z,10.60
2022-11-30T06:01:18.933Z,10.60
2022-11-30T06:03:45.823Z,10.60
2022-11-30T06:06:12.531Z,10.60
2022-11-30T06:08:39.194Z,10.60
2022-11-30T06:11:06.209Z,10.60
2022-11-30T06:13:32.945Z,10.60
2022-11-30T06:16:01.145Z,10.60
2022-11-30T06:18:28.540Z,10.60
2022-11-30T06:20:55.368Z,10.60
2022-11-30T06:23:21.988Z,10.50
2022-11-30T06:25:48.594Z,10.50
2022-11-30T06:28:15.259Z,10.50
2022-11-30T06:30:41.853Z,10.50
2022-11-30T06:33:08.518Z,10.50
2022-11-30T06:35:35.159Z,10.50
2022-11-30T06:38:01.883Z,10.50
2022-11-30T06:40:28.655Z,10.50
2022-11-30T06:42:55.348Z,10.40
2022-11-30T06:45:22.094Z,10.40
2022-11-30T06:47:48.689Z,10.50
2022-11-30T06:50:15.392Z,10.40
2022-11-30T06:52:42.050Z,10.40
2022-11-30T06:55:08.836Z,10.40
2022-11-30T06:57:35.471Z,10.40
2022-11-30T07:00:02.333Z,10.40
2022-11-30T07:02:28.941Z,10.40
2022-11-30T07:04:55.590Z,10.40
2022-11-30T07:07:22.315Z,10.40
2022-11-30T07:09:50.664Z,10.40
2022-11-30T07:12:17.553Z,10.40
2022-11-30T07:14:44.331Z,10.40
2022-11-30T07:17:11.075Z,10.40
2022-11-30T07:19:37.674Z,10.40
2022-11-30T07:22:04.471Z,10.40
2022-11-30T07:24:50.290Z,10.40
2022-11-30T07:27:17.059Z,10.40
2022-11-30T07:29:43.866Z,10.40
2022-11-30T07:32:10.607Z,10.40
2022-11-30T07:34:37.273Z,10.30
2022-11-30T07:37:03.871Z,10.30
2022-11-30T07:39:30.475Z,10.30
2022-11-30T07:41:57.152Z,10.30
2022-11-30T07:44:26.026Z,10.30
2022-11-30T07:46:52.828Z,10.30
2022-11-30T07:49:20.185Z,10.30
2022-11-30T07:51:46.842Z,10.30
2022-11-30T07:54:14.519Z,10.30
2022-11-30T07:56:41.224Z,10.30
2022-11-30T07:59:07.912Z,10.30
2022-11-30T08:01:34.711Z,10.30
2022-11-30T08:04:01.600Z,10.30
2022-11-30T08:06:31.867Z,10.30
2022-11-30T08:09:01.299Z,10.30
2022-11-30T08:11:33.784Z,10.30
2022-11-30T08:14:01.569Z,10.30
2022-11-30T08:16:29.815Z,10.30
2022-11-30T08:18:57.462Z,10.30
2022-11-30T08:21:24.736Z,10.30
2022-11-30T08:23:55.821Z,10.30
2022-11-30T08:26:28.712Z,10.30
2022-11-30T08:28:56.250Z,10.30
2022-11-30T08:31:35.210Z,10.30
2022-11-30T08:34:07.310Z,10.30
2022-11-30T08:36:34.650Z,10.30
2022-11-30T08:39:02.905Z,10.30
2022-11-30T08:41:29.573Z,10.30
2022-11-30T08:43:56.270Z,10.30
2022-11-30T08:46:50.257Z,10.30
2022-11-30T08:49:27.070Z,10.30
2022-11-30T08:54:47.599Z,10.30
2022-11-30T08:57:19.835Z,10.30
2022-11-30T08:59:46.763Z,10.30
2022-11-30T09:02:38.579Z,10.30
2022-11-30T09:05:05.699Z,10.30
2022-11-30T09:07:32.386Z,10.30
2022-11-30T09:09:59.660Z,10.30
2022-11-30T09:12:26.477Z,10.30
2022-11-30T09:14:57.894Z,10.20
2022-11-30T09:17:25.499Z,10.30
2022-11-30T09:19:52.187Z,10.20
2022-11-30T09:22:19.074Z,10.30
2022-11-30T09:24:46.181Z,10.20
2022-11-30T09:27:12.955Z,10.30
2022-11-30T09:29:39.578Z,10.30
2022-11-30T09:32:06.637Z,10.30
2022-11-30T09:34:33.276Z,10.30
2022-11-30T09:36:59.877Z,10.30
2022-11-30T09:39:26.556Z,10.30
2022-11-30T09:42:14.379Z,10.30
2022-11-30T09:45:16.499Z,10.30
2022-11-30T09:48:01.542Z,10.30
2022-11-30T09:50:31.559Z,10.30
2022-11-30T09:53:03.487Z,10.30
2022-11-30T09:55:35.934Z,10.30
2022-11-30T09:58:05.105Z,10.30
2022-11-30T10:00:33.843Z,10.30
2022-11-30T10:03:04.537Z,10.30
2022-11-30T10:05:55.680Z,10.30
2022-11-30T10:08:44.861Z,10.30
2022-11-30T10:11:41.024Z,10.30
2022-11-30T10:14:24.395Z,10.30
2022-11-30T10:16:59.888Z,10.30
2022-11-30T10:19:42.710Z,10.30
2022-11-30T10:22:24.741Z,10.30
2022-11-30T10:25:07.305Z,10.30
2022-11-30T10:28:45.095Z,10.30
2022-11-30T10:31:01.655Z,10.30
2022-11-30T10:33:38.742Z,10.30
2022-11-30T10:36:20.458Z,10.30
2022-11-30T10:38:52.975Z,10.30
2022-11-30T10:41:26.027Z,10.30
2022-11-30T10:44:06.111Z,10.30
2022-11-30T10:46:39.130Z,10.30
2022-11-30T10:49:11.665Z,10.30
2022-11-30T10:51:42.172Z,10.30
2022-11-30T10:54:21.513Z,10.30
2022-11-30T10:56:48.556Z,10.30
2022-11-30T10:59:42.452Z,10.30
2022-11-30T11:02:36.790Z,10.30
2022-11-30T11:05:20.197Z,10.30
2022-11-30T11:08:01.451Z,10.30
2022-11-30T11:10:45.225Z,10.30
2022-11-30T11:13:39.097Z,10.30
2022-11-30T11:16:08.439Z,10.30
2022-11-30T11:18:54.173Z,10.30
2022-11-30T11:21:22.756Z,10.30
2022-11-30T11:23:55.701Z,10.30
2022-11-30T11:26:27.668Z,10.30
2022-11-30T11:29:00.985Z,10.30
2022-11-30T11:31:43.979Z,10.30
2022-11-30T11:34:25.768Z,10.30
2022-11-30T11:37:14.290Z,10.30
2022-11-30T11:39:40.981Z,10.40
2022-11-30T11:42:22.481Z,10.40
2022-11-30T11:44:55.660Z,10.30
2022-11-30T11:47:32.673Z,10.40
2022-11-30T11:50:31.783Z,10.40
2022-11-30T11:53:22.553Z,10.40
2022-11-30T11:55:53.580Z,10.40
2022-11-30T11:58:37.918Z,10.40
2022-11-30T12:01:38.686Z,10.40
2022-11-30T12:04:25.983Z,10.40
2022-11-30T12:06:55.525Z,10.40
2022-11-30T12:09:27.213Z,10.40
2022-11-30T12:11:53.879Z,10.40
2022-11-30T12:14:20.580Z,10.30
2022-11-30T12:17:05.228Z,10.30
2022-11-30T12:19:40.592Z,10.30
2022-11-30T12:22:24.560Z,10.30
2022-11-30T12:25:06.169Z,10.30
2022-11-30T12:27:46.823Z,10.30
2022-11-30T12:30:27.049Z,10.30
2022-11-30T12:33:16.719Z,10.20
2022-11-30T12:35:46.953Z,10.20
2022-11-30T12:38:36.665Z,10.20
2022-11-30T12:41:21.413Z,10.20
2022-11-30T12:44:04.033Z,10.20
2022-11-30T12:46:39.807Z,10.20
2022-11-30T12:49:34.374Z,10.20
2022-11-30T12:52:20.090Z,10.20
2022-11-30T12:55:20.252Z,10.10
2022-11-30T12:58:21.337Z,10.10
2022-11-30T13:01:15.376Z,10.10
2022-11-30T13:03:58.388Z,10.10
2022-11-30T13:06:33.018Z,10.00
2022-11-30T13:09:11.796Z,10.00
2022-11-30T13:11:41.138Z,10.00
2022-11-30T13:14:14.816Z,10.00
2022-11-30T13:16:43.424Z,10.00
2022-11-30T13:19:32.921Z,10.00
2022-11-30T13:22:06.278Z,10.00
2022-11-30T13:24:39.879Z,10.00
2022-11-30T13:27:23.583Z,10.00
2022-11-30T13:29:58.929Z,9.90
2022-11-30T13:32:56.753Z,9.90
2022-11-30T13:35:28.212Z,9.90
2022-11-30T13:41:04.717Z,9.90
2022-11-30T13:43:45.177Z,9.90
2022-11-30T13:46:20.540Z,9.80
2022-11-30T13:48:48.140Z,9.80
2022-11-30T13:51:35.457Z,9.80
2022-11-30T13:54:45.655Z,9.80
2022-11-30T13:57:38.493Z,9.80
2022-11-30T14:00:31.493Z,9.80
2022-11-30T14:03:19.831Z,9.80
2022-11-30T14:05:57.856Z,9.80
2022-11-30T14:08:24.669Z,9.80
2022-11-30T14:11:29.088Z,9.80
2022-11-30T14:13:55.704Z,9.70
2022-11-30T14:16:29.707Z,9.70
2022-11-30T14:18:57.317Z,9.70
2022-11-30T14:21:32.701Z,9.70
2022-11-30T14:24:14.164Z,9.60
2022-11-30T14:26:44.444Z,9.60
2022-11-30T14:29:21.941Z,9.60
2022-11-30T14:31:56.836Z,9.60
2022-11-30T14:34:32.597Z,9.60
2022-11-30T14:37:16.068Z,9.60
2022-11-30T14:39:47.942Z,9.50
2022-11-30T14:42:26.488Z,9.50
2022-11-30T14:44:54.020Z,9.50
2022-11-30T14:47:31.172Z,9.50
2022-11-30T14:50:02.241Z,9.50
2022-11-30T14:52:49.470Z,9.50
2022-11-30T14:55:29.113Z,9.50
2022-11-30T14:57:55.719Z,9.50
2022-11-30T15:00:22.929Z,9.50
2022-11-30T15:02:49.879Z,9.50
2022-11-30T15:05:22.469Z,9.50
2022-11-30T15:07:50.209Z,9.50
2022-11-30T15:10:30.599Z,9.50
2022-11-30T15:13:01.284Z,9.50
2022-11-30T15:15:31.080Z,9.40
2022-11-30T15:17:58.720Z,9.50
2022-11-30T15:20:39.034Z,9.50
2022-11-30T15:23:11.744Z,9.50
2022-11-30T15:25:42.846Z,9.50
2022-11-30T15:28:14.500Z,9.50
2022-11-30T15:30:44.462Z,9.50
2022-11-30T15:33:22.671Z,9.50
2022-11-30T15:38:41.202Z,9.50
2022-11-30T15:41:25.548Z,9.50
2022-11-30T15:43:54.833Z,9.50
2022-11-30T15:46:46.019Z,9.50
2022-11-30T15:49:28.313Z,9.40
2022-11-30T15:52:09.798Z,9.40
2022-11-30T15:54:55.140Z,9.40
2022-11-30T15:57:24.252Z,9.40
2022-11-30T16:00:14.678Z,9.40
2022-11-30T16:02:41.423Z,9.40
2022-11-30T16:05:14.934Z,9.40
2022-11-30T16:10:37.936Z,9.40
2022-11-30T16:13:05.430Z,9.40
2022-11-30T16:15:35.864Z,9.40
2022-11-30T16:18:08.492Z,9.40
2022-11-30T16:20:35.250Z,9.40
2022-11-30T16:23:05.784Z,9.40
2022-11-30T16:25:32.781Z,9.40
2022-11-30T16:27:59.393Z,9.30
2022-11-30T16:30:26.053Z,9.30
2022-11-30T16:32:52.863Z,9.30
2022-11-30T16:35:40.273Z,9.30
2022-11-30T16:38:07.382Z,9.30
2022-11-30T16:40:38.563Z,9.30
2022-11-30T16:43:06.058Z,9.30
2022-11-30T16:45:37.636Z,9.30
2022-11-30T16:48:05.010Z,9.20
2022-11-30T16:50:34.548Z,9.20
2022-11-30T16:53:02.045Z,9.20
2022-11-30T16:55:31.636Z,9.20
2022-11-30T16:57:58.581Z,9.20
2022-11-30T17:00:25.250Z,9.20
2022-11-30T17:02:59.670Z,9.20
2022-11-30T17:05:27.520Z,9.10
2022-11-30T17:07:55.236Z,9.10
2022-11-30T17:10:22.387Z,9.10
2022-11-30T17:12:49.354Z,9.10
2022-11-30T17:15:21.640Z,9.10
2022-11-30T17:17:48.347Z,9.10
2022-11-30T17:20:16.861Z,9.10
2022-11-30T17:22:44.541Z,9.10
2022-11-30T17:25:18.213Z,9.10
2022-11-30T17:27:45.560Z,9.10
2022-11-30T17:30:14.694Z,9.00
2022-11-30T17:32:41.388Z,9.00
2022-11-30T17:35:08.843Z,9.00
2022-11-30T17:37:35.981Z,9.00
2022-11-30T17:40:04.042Z,9.00
2022-11-30T17:42:31.067Z,9.00
2022-11-30T17:44:57.819Z,9.00
2022-11-30T17:47:24.627Z,8.90
2022-11-30T17:49:51.430Z,8.90
2022-11-30T17:52:18.045Z,8.90
2022-11-30T17:54:44.753Z,8.90
2022-11-30T17:57:11.442Z,8.90
2022-11-30T17:59:38.085Z,8.90
2022-11-30T18:02:04.928Z,8.90
2022-11-30T18:04:31.615Z,8.90
2022-11-30T18:06:58.225Z,8.90
2022-11-30T18:09:24.851Z,8.90
2022-11-30T18:11:51.500Z,8.90
2022-11-30T18:14:18.095Z,8.90
2022-11-30T18:16:44.923Z,8.90
2022-11-30T18:19:13.172Z,8.90
2022-11-30T18:21:41.415Z,8.80
2022-11-30T18:24:09.473Z,8.80
2022-11-30T18:26:36.113Z,8.80
2022-11-30T18:29:03.178Z,8.80
2022-11-30T18:31:30.713Z,8.80
2022-11-30T18:34:03.301Z,8.80
2022-11-30T18:36:30.766Z,8.80
2022-11-30T18:38:58.051Z,8.80
2022-11-30T18:41:26.197Z,8.80
2022-11-30T18:43:53.534Z,8.80
2022-11-30T18:46:20.780Z,8.80
2022-11-30T18:48:51.822Z,8.80
2022-11-30T18:51:24.011Z,8.80
2022-11-30T18:53:57.589Z,8.80
2022-11-30T18:56:26.004Z,8.80
2022-11-30T18:59:06.372Z,8.80
2022-11-30T19:01:34.488Z,8.80
2022-11-30T19:04:03.969Z,8.80
2022-11-30T19:06:32.738Z,8.80
2022-11-30T19:09:10.694Z,8.80
2022-11-30T19:11:38.622Z,8.80
2022-11-30T19:14:06.311Z,8.80
2022-11-30T19:16:34.667Z,8.70
2022-11-30T19:19:04.803Z,8.70
2022-11-30T19:21:31.870Z,8.70
2022-11-30T19:23:59.029Z,8.80
2022-11-30T19:26:27.845Z,8.70
2022-11-30T19:28:55.699Z,8.80
2022-11-30T19:31:23.493Z,8.80
2022-11-30T19:33:52.723Z,8.80
2022-11-30T19:36:28.150Z,8.80
2022-11-30T19:38:55.134Z,8.80
2022-11-30T19:41:22.354Z,8.80
2022-11-30T19:44:02.737Z,8.80
2022-11-30T19:46:31.750Z,8.80
2022-11-30T19:49:00.665Z,8.80
2022-11-30T19:51:28.410Z,8.80
2022-11-30T19:53:55.511Z,8.80
2022-11-30T19:56:23.464Z,8.80
2022-11-30T19:58:50.498Z,8.80
2022-11-30T20:01:22.931Z,8.80
2022-11-30T20:03:51.166Z,8.80
2022-11-30T20:06:18.891Z,8.80
2022-11-30T20:08:45.968Z,8.80
2022-11-30T20:11:15.252Z,8.80
2022-11-30T20:13:45.848Z,8.80
2022-11-30T20:16:14.729Z,8.80
2022-11-30T20:18:46.020Z,8.80
2022-11-30T20:21:22.132Z,8.80
2022-11-30T20:23:49.745Z,8.70
2022-11-30T20:26:26.217Z,8.70
2022-11-30T20:28:53.166Z,8.70
2022-11-30T20:31:22.025Z,8.70
2022-11-30T20:33:49.461Z,8.70
2022-11-30T20:36:17.354Z,8.70
2022-11-30T20:38:44.335Z,8.70
2022-11-30T20:41:13.536Z,8.70
2022-11-30T20:43:40.921Z,8.70
2022-11-30T20:46:20.288Z,8.70
2022-11-30T20:48:47.667Z,8.70
2022-11-30T20:51:33.550Z,8.70
2022-11-30T20:54:02.948Z,8.70
2022-11-30T20:56:29.997Z,8.70
2022-11-30T20:58:59.972Z,8.70
2022-11-30T21:01:26.570Z,8.70
2022-11-30T21:03:53.227Z,8.70
2022-11-30T21:06:19.980Z,8.70
2022-11-30T21:08:46.582Z,8.70
2022-11-30T21:11:16.262Z,8.70
2022-11-30T21:13:44.824Z,8.70
2022-11-30T21:16:13.311Z,8.70
2022-11-30T21:18:43.208Z,8.70
2022-11-30T21:21:15.876Z,8.70
2022-11-30T21:23:42.970Z,8.80
2022-11-30T21:26:25.168Z,8.80
2022-11-30T21:28:54.096Z,8.80
2022-11-30T21:31:22.153Z,8.80
2022-11-30T21:33:53.172Z,8.80
2022-11-30T21:36:21.830Z,8.80
2022-11-30T21:38:53.145Z,8.80
2022-11-30T21:41:19.841Z,8.80
2022-11-30T21:43:46.507Z,8.80
2022-11-30T21:46:15.738Z,8.80
2022-11-30T21:48:44.293Z,8.80
2022-11-30T21:51:13.116Z,8.80
2022-11-30T21:53:44.491Z,8.80
2022-11-30T21:56:14.618Z,8.80
2022-11-30T21:58:45.007Z,8.80
2022-11-30T22:01:17.264Z,8.80
2022-11-30T22:03:43.943Z,8.80
2022-11-30T22:06:12.885Z,8.80
2022-11-30T22:08:40.980Z,8.80
2022-11-30T22:11:10.231Z,8.80
2022-11-30T22:13:37.373Z,8.80
2022-11-30T22:16:06.926Z,8.80
2022-11-30T22:18:34.301Z,8.80
2022-11-30T22:21:06.387Z,8.80
2022-11-30T22:23:38.279Z,8.80
2022-11-30T22:26:20.291Z,8.80
2022-11-30T22:28:51.573Z,8.80
2022-11-30T22:31:19.930Z,8.80
2022-11-30T22:33:47.577Z,8.80
2022-11-30T22:36:23.012Z,8.80
2022-11-30T22:38:54.996Z,8.80
2022-11-30T22:41:21.998Z,8.80
2022-11-30T22:43:49.315Z,8.80
2022-11-30T22:46:19.506Z,8.80
2022-11-30T22:48:47.199Z,8.80
2022-11-30T22:51:16.429Z,8.80
2022-11-30T22:53:43.273Z,8.80
2022-11-30T22:56:15.142Z,8.80
2022-11-30T22:58:43.331Z,8.80
2022-11-30T23:01:20.075Z,8.80
2022-11-30T23:03:48.515Z,8.80
2022-11-30T23:06:16.578Z,8.80
2022-11-30T23:08:44.418Z,8.80
2022-11-30T23:11:13.933Z,8.80
2022-11-30T23:13:41.900Z,8.70
2022-11-30T23:16:10.203Z,8.70
2022-11-30T23:18:46.286Z,8.70
2022-11-30T23:21:19.085Z,8.80
2022-11-30T23:23:46.902Z,8.80
2022-11-30T23:26:23.001Z,8.80
2022-11-30T23:28:51.756Z,8.80
2022-11-30T23:31:34.691Z,8.80
2022-11-30T23:34:05.550Z,8.80
2022-11-30T23:36:33.503Z,8.80
2022-11-30T23:39:04.378Z,8.80
2022-11-30T23:41:31.220Z,8.80
2022-11-30T23:43:58.228Z,8.80
2022-11-30T23:46:25.475Z,8.80
2022-11-30T23:48:52.445Z,8.80
2022-11-30T23:51:19.160Z,8.80
2022-11-30T23:53:45.938Z,8.80
2022-11-30T23:56:15.002Z,8.80
2022-11-30T23:58:41.970Z,8.80
